NCAR-RAP Real-Time Weather Data

Output produced by METARs form (26 May 2022  08:18 UTC)
found at http://weather.rap.ucar.edu/surface/
 
KICT 260753Z 33012G21KT 10SM SCT011 BKN015 OVC029 11/09 A2970 RMK AO2 RAE03 SLP057 P0000 T01110094
KICT 260711Z 33013G21KT 10SM SCT009 BKN015 OVC036 11/09 A2970 RMK AO2 RAE03 P0000 T01110094
KICT 260653Z 34018G27KT 3SM -RA BR SCT010 BKN014 OVC036 11/10 A2970 RMK AO2 PK WND 33027/0653 SLP056 P0001 T01110100
KICT 260646Z 34016KT 3SM -RA BR BKN010 OVC016 11/10 A2970 RMK AO2 P0000 T01110100
KICT 260553Z 33014KT 5SM -RA BR BKN009 BKN013 OVC019 11/10 A2970 RMK AO2 SLP055 P0003 60041 T01110100 10117 20111 401330111 58005
KICT 260522Z 32014G22KT 3SM -RA BR SCT007 OVC013 11/10 A2971 RMK AO2 P0002 T01110100
KICT 260453Z 32012KT 5SM -RA BR BKN010 OVC015 11/10 A2971 RMK AO2 CIG 006V011 SLP058 P0007 T01110100
KICT 260400Z 32012KT 8SM -RA BKN012 OVC020 11/10 A2972 RMK AO2 P0000 T01110100
KICT 260353Z 32013KT 8SM -RA SCT010 OVC018 11/10 A2972 RMK AO2 SLP062 P0009 T01110100
KICT 260338Z 32012KT 4SM RA BR SCT010 OVC016 11/10 A2972 RMK AO2 P0008 T01110100
KICT 260253Z 32012KT 4SM RA BR BKN010 BKN016 OVC075 11/10 A2971 RMK AO2 SLP060 P0004 60022 T01110100 51007
KICT 260153Z 33016KT 5SM -RA BR BKN010 OVC016 11/10 A2971 RMK AO2 SLP057 P0011 T01110100
KICT 260053Z 33015KT 3SM RA BR BKN012 OVC018 11/10 A2971 RMK AO2 PK WND 33027/0017 TWR VIS 4 SLP058 P0007 T01110100
KICT 252353Z 33016G27KT 3SM -RA BR BKN010 OVC014 12/11 A2969 RMK AO2 PK WND 34027/2347 TWR VIS 4 SLP053 P0005 60059 T01170106 10133 20117 53002
KICT 252253Z 32011KT 4SM -RA BR BKN010 OVC020 12/11 A2968 RMK AO2 SLP050 P0010 T01170106
KICT 252244Z 31013KT 4SM -RA BR BKN010 OVC025 12/11 A2968 RMK AO2 P0009 T01170106
KICT 252231Z 30012KT 2 1/2SM RA BR BKN010 OVC025 12/11 A2968 RMK AO2 P0006 T01170106
KICT 252217Z 32012KT 2 1/2SM -RA BR SCT011 SCT014 OVC034 12/11 A2969 RMK AO2 P0004 T01170106
KICT 252208Z 32012KT 3SM -RA BR SCT011 SCT014 OVC034 12/11 A2969 RMK AO2 P0002 T01170106
KICT 252153Z 31011KT 2 1/2SM -RA BR SCT011 SCT014 OVC034 12/11 A2968 RMK AO2 SLP050 P0011 T01170106
KICT 252053Z 32013KT 2 1/2SM RA BR SCT011 SCT014 OVC039 12/11 A2969 RMK AO2 SLP051 P0017 60033 T01170106 56004
KICT 251953Z 32013G22KT 2SM RA BR FEW008 BKN020 OVC026 12/11 A2969 RMK AO2 SLP050 P0013 T01220111
KICT 251944Z 33016G24KT 2SM +RA BR SCT008 BKN014 OVC020 12/11 A2969 RMK AO2 P0010 T01220111
KICT 251853Z 33014KT 4SM -RA BR OVC010 13/12 A2969 RMK AO2 SLP051 P0003 T01280117
KICT 251753Z 33013KT 9SM -RA OVC010 13/12 A2970 RMK AO2 CIG 007V012 SLP053 P0001 60021 T01330117 10133 20111 58002
KICT 251653Z 32011KT 6SM -RA BR OVC007 13/12 A2970 RMK AO2 SLP055 P0000 T01330122
KICT 251553Z 35012G19KT 10SM -RA OVC007 13/12 A2971 RMK AO2 SLP056 P0004 T01280117
KICT 251453Z 33010KT 5SM -RA BR OVC006 12/11 A2971 RMK AO2 SLP056 P0006 60016 T01170111 53000
KICT 251353Z 33012KT 4SM -RA BR OVC006 11/11 A2970 RMK AO2 SLP055 P0007 T01110106
KICT 251253Z 34013KT 3SM -RA BR OVC005 11/11 A2970 RMK AO2 TWR VIS 5 SLP055 P0003 T01110106
KICT 251206Z 33010KT 2SM -RA BR OVC005 11/11 A2970 RMK AO2 SFC VIS 3 P0000 T01110106
KICT 251153Z 33009KT 3SM -RA BR OVC005 11/11 A2970 RMK AO2 CIG 004V008 SLP054 P0006 60006 70128 T01110106 10122 20111 50005
KICT 251053Z 32008KT 4SM -RA BR OVC006 11/11 A2971 RMK AO2 RAB34 SLP056 P0000 T01110106
KICT 250953Z 30009KT 10SM OVC006 11/11 A2971 RMK AO2 SLP057 T01110106
KICT 250853Z 29010KT 4SM BR OVC005 11/11 A2969 RMK AO2 SLP047 60000 T01110106 58017
KICT 250753Z 28009KT 10SM OVC007 12/11 A2971 RMK AO2 SLP056 T01170106
KICT 250653Z 27009KT 7SM OVC005 12/11 A2973 RMK AO2 DZE49 CIG 004V008 SLP064 P0000 T01170111
KICT 250553Z 27009KT 3SM -DZ BR OVC005 12/12 A2974 RMK AO2 CIG 003V007 SLP066 P0000 60000 T01220117 10161 20122 401890117 50002
KICT 250453Z 26008KT 3SM -DZ BR OVC005 13/12 A2975 RMK AO2 CIG 003V007 SLP070 P0000 T01280122
KICT 250353Z 25008KT 4SM -DZ BR OVC005 13/13 A2974 RMK AO2 SLP068 P0000 T01330128
KICT 250306Z 27007KT 5SM -DZ BR OVC005 14/13 A2974 RMK AO2 P0000 T01390133
KICT 250253Z 23007KT 2 1/2SM -DZ BR OVC006 14/13 A2973 RMK AO2 SLP064 P0000 60000 T01390133 53009
KICT 250219Z 20006KT 3SM -DZ BR OVC007 14/13 A2972 RMK AO2 P0000 T01390133
KICT 250153Z 22007KT 2 1/2SM -DZ BR OVC008 14/13 A2972 RMK AO2 DZB27E34B51 CIG 006V012 SLP059 P0000 T01390133
KICT 250149Z 22007KT 2 1/2SM BR OVC008 14/13 A2972 RMK AO2 DZB27E34 CIG 006V012 P0000
KICT 250124Z 23009KT 10SM BKN011 OVC018 14/13 A2970 RMK AO2 T01440128
KICT 250116Z 23008KT 10SM SCT011 OVC018 15/13 A2971 RMK AO2 T01500128
KICT 250103Z 23009KT 10SM BKN013 OVC018 15/13 A2971 RMK AO2 T01500133
KICT 250053Z 23009KT 10SM OVC015 15/13 A2971 RMK AO2 SLP055 T01500128
KICT 242353Z 23013KT 10SM BKN017 OVC024 16/13 A2971 RMK AO2 SLP054 60007 T01610133 10189 20161 53008
KICT 242253Z 20011KT 10SM BKN018 OVC025 17/14 A2969 RMK AO2 SLP047 T01720144
KICT 242153Z 20012KT 10SM FEW015 BKN021 OVC028 18/15 A2968 RMK AO2 SLP046 T01780150
KICT 242118Z 18012KT 10SM FEW017 SCT024 OVC029 18/15 A2968 RMK AO2 T01780150
KICT 242053Z 19014KT 10SM FEW016 SCT024 OVC039 18/16 A2968 RMK AO2 SLP046 P0001 60007 T01830156 56010
KICT 242049Z 19015G22KT 10SM FEW016 SCT024 OVC039 19/16 A2968 RMK AO2 P0001
KICT 242009Z 13012KT 10SM SCT010 BKN015 OVC037 18/16 A2968 RMK AO2 P0001 T01780161
KICT 241953Z 15011KT 6SM BR BKN010 BKN016 OVC022 18/16 A2969 RMK AO2 RAE16B34E45 CIG 008V012 SLP048 P0000 T01780161
KICT 241909Z 13011KT 4SM -RA BR BKN011 OVC017 17/16 A2971 RMK AO2 P0000 T01720161
KICT 241856Z 13010KT 2 1/2SM -RA BR SCT008 BKN012 OVC017 17/16 A2971 RMK AO2 P0000 T01670156
KICT 241853Z 13011KT 3SM -RA BR SCT008 BKN014 OVC022 17/16 A2971 RMK AO2 SLP058 P0006 T01670156
KICT 241812Z 13013KT 5SM -RA BR FEW006 OVC010 16/15 A2974 RMK AO2 P0003 T01610150
KICT 241802Z 13012KT 2SM R01L/5500VP6000FT RA BR OVC011 16/15 A2974 RMK AO2 TWR VIS 3 P0001 T01610150
KICT 241753Z COR 14013G23KT 3SM -RA BR OVC011 16/15 A2974 RMK AO2 SFC VIS 4 RAE19B51 SLP068 P0002 60115 T01610150 10161 20133 55021
KICT 241653Z 11016G28KT 5SM RA BR OVC009 16/14 A2973 RMK AO2 PK WND 11031/1611 SLP062 P0010 T01560144
KICT 241553Z 11014KT 2SM -RA BR OVC007 15/14 A2977 RMK AO2 SFC VIS 4 CIG 005V011 SLP075 P0019 T01500144
KICT 241453Z 06010KT 2SM RA BR OVC007 14/13 A2981 RMK AO2 CIG 005V013 SLP090 P0027 60084 T01390133 58024
KICT 241353Z 06009KT 1SM R01L/P6000FT +RA BR OVC007 13/13 A2985 RMK AO2 TWR VIS 2 CIG 004V011 SLP104 P0037 T01330133
KICT 241253Z 05011KT 2SM RA BR BKN005 BKN014 OVC024 13/13 A2986 RMK AO2 SLP106 P0020 T01330128
KICT 241216Z 06011KT 1SM R01L/P6000FT RA BR BKN006 BKN032 OVC050 13/13 A2987 RMK AO2 TWR VIS 2 P0011 T01330128
KICT 241153Z 07008KT 3/4SM R01L/5500VP6000FT +RA BR BKN006 BKN020 OVC048 13/13 A2988 RMK AO2 SFC VIS 1 SLP115 P0047 60180 70231 T01330128 10133 20117 58013
KICT 241124Z 07004KT 3/4SM R01L/4000VP6000FT +RA BR OVC005 13/13 A2990 RMK AO2 P0020 T01280128
KICT 241053Z 07007KT 3SM RA BR OVC006 13/12 A2990 RMK AO2 SLP120 P0020 T01280122
KICT 241039Z 07007KT 3SM RA BR OVC006 13/12 A2990 RMK AO2 P0015 T01280122
KICT 240953Z 07008KT 2SM RA BR OVC007 12/12 A2992 RMK AO2 SLP128 P0033 T01220117
KICT 240950Z 07010KT 2SM RA BR OVC007 12/12 A2992 RMK AO2 P0031
KICT 240927Z 05009KT 3SM +RA BR SCT007 BKN012 OVC020 12/12 A2993 RMK AO2 P0013 T01220117
KICT 240853Z 08014KT 3SM RA BR BKN005 OVC028 12/12 A2993 RMK AO2 SLP131 P0023 60080 T01220117 58023